sensor_id;sensor_type;location;lat;lon;timestamp;pressure;altitude;pressure_sealevel;temperature;humidity
48888;BME280;42598;53.802;-1.632;2023-03-04T00:01:11;102328.73;;;6.11;49.35
48888;BME280;42598;53.802;-1.632;2023-03-04T00:03:39;102329.95;;;6.38;48.53
48888;BME280;42598;53.802;-1.632;2023-03-04T00:06:07;102333.27;;;5.03;52.33
48888;BME280;42598;53.802;-1.632;2023-03-04T00:08:34;102334.63;;;6.65;48.99
48888;BME280;42598;53.802;-1.632;2023-03-04T00:11:01;102332.66;;;6.70;48.32
48888;BME280;42598;53.802;-1.632;2023-03-04T00:13:29;102337.14;;;7.18;47.55
48888;BME280;42598;53.802;-1.632;2023-03-04T00:15:56;102338.84;;;7.17;47.95
48888;BME280;42598;53.802;-1.632;2023-03-04T00:18:23;102340.55;;;7.10;48.30
48888;BME280;42598;53.802;-1.632;2023-03-04T00:20:50;102342.77;;;6.39;49.48
48888;BME280;42598;53.802;-1.632;2023-03-04T00:23:17;102338.55;;;6.64;48.72
48888;BME280;42598;53.802;-1.632;2023-03-04T00:25:44;102339.60;;;5.48;51.17
48888;BME280;42598;53.802;-1.632;2023-03-04T00:28:12;102338.25;;;6.13;50.38
48888;BME280;42598;53.802;-1.632;2023-03-04T00:30:39;102335.37;;;5.95;49.34
48888;BME280;42598;53.802;-1.632;2023-03-04T00:33:05;102343.42;;;5.73;50.27
48888;BME280;42598;53.802;-1.632;2023-03-04T00:35:33;102344.99;;;6.45;49.57
48888;BME280;42598;53.802;-1.632;2023-03-04T00:38:00;102343.57;;;6.74;48.34
48888;BME280;42598;53.802;-1.632;2023-03-04T00:40:28;102349.10;;;6.31;48.74
48888;BME280;42598;53.802;-1.632;2023-03-04T00:42:55;102347.25;;;6.52;48.76
48888;BME280;42598;53.802;-1.632;2023-03-04T00:45:23;102346.70;;;6.87;47.89
48888;BME280;42598;53.802;-1.632;2023-03-04T00:47:50;102348.61;;;7.10;46.76
48888;BME280;42598;53.802;-1.632;2023-03-04T00:50:17;102349.21;;;5.90;48.10
48888;BME280;42598;53.802;-1.632;2023-03-04T00:52:45;102347.29;;;6.37;48.40
48888;BME280;42598;53.802;-1.632;2023-03-04T00:55:13;102349.05;;;7.19;47.35
48888;BME280;42598;53.802;-1.632;2023-03-04T00:57:40;102349.18;;;5.82;48.32
48888;BME280;42598;53.802;-1.632;2023-03-04T01:00:10;102344.97;;;7.04;46.17
48888;BME280;42598;53.802;-1.632;2023-03-04T01:02:37;102345.06;;;6.75;46.71
48888;BME280;42598;53.802;-1.632;2023-03-04T01:05:05;102344.24;;;6.96;46.32
48888;BME280;42598;53.802;-1.632;2023-03-04T01:07:32;102345.72;;;7.48;45.07
48888;BME280;42598;53.802;-1.632;2023-03-04T01:09:59;102343.57;;;6.26;48.05
48888;BME280;42598;53.802;-1.632;2023-03-04T01:12:26;102345.95;;;6.33;48.32
48888;BME280;42598;53.802;-1.632;2023-03-04T01:14:53;102346.55;;;4.66;50.75
48888;BME280;42598;53.802;-1.632;2023-03-04T01:17:20;102339.46;;;5.72;48.46
48888;BME280;42598;53.802;-1.632;2023-03-04T01:19:47;102339.05;;;6.36;48.35
48888;BME280;42598;53.802;-1.632;2023-03-04T01:22:14;102333.11;;;6.15;48.63
48888;BME280;42598;53.802;-1.632;2023-03-04T01:24:41;102334.06;;;6.37;47.22
48888;BME280;42598;53.802;-1.632;2023-03-04T01:27:08;102331.31;;;6.41;47.99
48888;BME280;42598;53.802;-1.632;2023-03-04T01:29:34;102330.71;;;6.46;47.56
48888;BME280;42598;53.802;-1.632;2023-03-04T01:32:01;102328.69;;;6.12;47.43
48888;BME280;42598;53.802;-1.632;2023-03-04T01:34:28;102329.99;;;6.84;47.37
48888;BME280;42598;53.802;-1.632;2023-03-04T01:36:55;102327.90;;;6.83;46.81
48888;BME280;42598;53.802;-1.632;2023-03-04T01:39:22;102328.14;;;6.49;46.76
48888;BME280;42598;53.802;-1.632;2023-03-04T01:41:49;102328.56;;;6.43;47.58
48888;BME280;42598;53.802;-1.632;2023-03-04T01:44:16;102321.61;;;6.10;48.01
48888;BME280;42598;53.802;-1.632;2023-03-04T01:46:48;102320.14;;;6.25;47.79
48888;BME280;42598;53.802;-1.632;2023-03-04T01:49:17;102316.04;;;5.82;48.65
48888;BME280;42598;53.802;-1.632;2023-03-04T01:51:48;102314.55;;;5.02;48.80
48888;BME280;42598;53.802;-1.632;2023-03-04T01:54:16;102315.09;;;5.14;48.81
48888;BME280;42598;53.802;-1.632;2023-03-04T01:56:45;102312.72;;;5.17;48.97
48888;BME280;42598;53.802;-1.632;2023-03-04T01:59:14;102310.70;;;6.15;47.09
48888;BME280;42598;53.802;-1.632;2023-03-04T02:01:44;102309.23;;;4.93;48.70
48888;BME280;42598;53.802;-1.632;2023-03-04T02:04:32;102309.21;;;4.49;49.22
48888;BME280;42598;53.802;-1.632;2023-03-04T02:07:01;102309.31;;;4.84;49.54
48888;BME280;42598;53.802;-1.632;2023-03-04T02:09:30;102310.78;;;5.12;48.78
48888;BME280;42598;53.802;-1.632;2023-03-04T02:11:58;102309.18;;;4.80;49.77
48888;BME280;42598;53.802;-1.632;2023-03-04T02:14:25;102304.98;;;5.97;47.92
48888;BME280;42598;53.802;-1.632;2023-03-04T02:16:53;102304.72;;;5.17;48.60
48888;BME280;42598;53.802;-1.632;2023-03-04T02:19:29;102298.61;;;6.07;47.85
48888;BME280;42598;53.802;-1.632;2023-03-04T02:21:59;102294.35;;;6.47;46.83
48888;BME280;42598;53.802;-1.632;2023-03-04T02:24:30;102292.19;;;5.04;49.12
48888;BME280;42598;53.802;-1.632;2023-03-04T02:26:59;102292.01;;;4.34;51.51
48888;BME280;42598;53.802;-1.632;2023-03-04T02:29:27;102288.81;;;4.81;51.79
48888;BME280;42598;53.802;-1.632;2023-03-04T02:31:54;102285.24;;;5.77;49.56
48888;BME280;42598;53.802;-1.632;2023-03-04T02:34:24;102284.92;;;4.92;50.85
48888;BME280;42598;53.802;-1.632;2023-03-04T02:36:52;102279.56;;;4.87;50.85
48888;BME280;42598;53.802;-1.632;2023-03-04T02:39:26;102276.51;;;5.47;50.37
48888;BME280;42598;53.802;-1.632;2023-03-04T02:41:55;102274.54;;;4.64;51.31
48888;BME280;42598;53.802;-1.632;2023-03-04T02:44:23;102272.18;;;4.83;52.23
48888;BME280;42598;53.802;-1.632;2023-03-04T02:46:52;102272.42;;;4.12;52.44
48888;BME280;42598;53.802;-1.632;2023-03-04T02:49:19;102273.63;;;4.31;53.08
48888;BME280;42598;53.802;-1.632;2023-03-04T02:51:50;102269.15;;;4.50;52.34
48888;BME280;42598;53.802;-1.632;2023-03-04T02:54:18;102264.45;;;5.20;51.51
48888;BME280;42598;53.802;-1.632;2023-03-04T02:56:47;102261.02;;;5.04;50.78
48888;BME280;42598;53.802;-1.632;2023-03-04T02:59:15;102262.12;;;4.37;51.27
48888;BME280;42598;53.802;-1.632;2023-03-04T03:01:44;102261.89;;;4.82;50.93
48888;BME280;42598;53.802;-1.632;2023-03-04T03:04:11;102262.52;;;4.41;52.49
48888;BME280;42598;53.802;-1.632;2023-03-04T03:06:39;102254.30;;;4.03;52.98
48888;BME280;42598;53.802;-1.632;2023-03-04T03:09:08;102255.10;;;3.99;53.67
48888;BME280;42598;53.802;-1.632;2023-03-04T03:11:35;102255.43;;;4.34;52.71
48888;BME280;42598;53.802;-1.632;2023-03-04T03:14:04;102259.38;;;4.45;53.48
48888;BME280;42598;53.802;-1.632;2023-03-04T03:16:31;102258.03;;;5.01;51.52
48888;BME280;42598;53.802;-1.632;2023-03-04T03:18:58;102256.30;;;4.58;52.19
48888;BME280;42598;53.802;-1.632;2023-03-04T03:21:25;102253.46;;;3.79;53.65
48888;BME280;42598;53.802;-1.632;2023-03-04T03:23:52;102256.82;;;3.61;55.48
48888;BME280;42598;53.802;-1.632;2023-03-04T03:26:19;102251.27;;;4.14;53.52
48888;BME280;42598;53.802;-1.632;2023-03-04T03:28:47;102244.35;;;3.27;54.24
48888;BME280;42598;53.802;-1.632;2023-03-04T03:31:14;102246.26;;;3.45;55.48
48888;BME280;42598;53.802;-1.632;2023-03-04T03:33:41;102241.38;;;3.28;55.13
48888;BME280;42598;53.802;-1.632;2023-03-04T03:36:10;102235.10;;;3.34;55.39
48888;BME280;42598;53.802;-1.632;2023-03-04T03:38:37;102233.06;;;4.54;52.92
48888;BME280;42598;53.802;-1.632;2023-03-04T03:41:05;102236.80;;;3.81;53.72
48888;BME280;42598;53.802;-1.632;2023-03-04T03:43:32;102237.02;;;4.61;52.36
48888;BME280;42598;53.802;-1.632;2023-03-04T03:45:59;102236.02;;;4.25;52.77
48888;BME280;42598;53.802;-1.632;2023-03-04T03:48:25;102235.62;;;4.45;53.04
48888;BME280;42598;53.802;-1.632;2023-03-04T03:50:52;102235.86;;;4.38;52.97
48888;BME280;42598;53.802;-1.632;2023-03-04T03:53:19;102231.06;;;3.83;53.98
48888;BME280;42598;53.802;-1.632;2023-03-04T03:55:46;102229.18;;;4.04;53.97
48888;BME280;42598;53.802;-1.632;2023-03-04T03:58:13;102228.55;;;4.97;51.50
48888;BME280;42598;53.802;-1.632;2023-03-04T04:00:40;102226.86;;;4.38;52.48
48888;BME280;42598;53.802;-1.632;2023-03-04T04:03:08;102231.11;;;4.68;51.82
48888;BME280;42598;53.802;-1.632;2023-03-04T04:05:36;102230.50;;;4.19;52.37
48888;BME280;42598;53.802;-1.632;2023-03-04T04:08:03;102232.25;;;4.43;53.23
48888;BME280;42598;53.802;-1.632;2023-03-04T04:10:31;102233.11;;;3.48;54.09
48888;BME280;42598;53.802;-1.632;2023-03-04T04:12:58;102231.15;;;4.36;52.74
48888;BME280;42598;53.802;-1.632;2023-03-04T04:15:24;102227.38;;;3.78;53.44
48888;BME280;42598;53.802;-1.632;2023-03-04T04:17:52;102229.39;;;4.59;52.04
48888;BME280;42598;53.802;-1.632;2023-03-04T04:20:20;102227.58;;;5.46;50.92
48888;BME280;42598;53.802;-1.632;2023-03-04T04:22:46;102225.19;;;5.56;50.20
48888;BME280;42598;53.802;-1.632;2023-03-04T04:25:13;102226.09;;;4.79;51.12
48888;BME280;42598;53.802;-1.632;2023-03-04T04:27:41;102223.77;;;4.28;54.23
48888;BME280;42598;53.802;-1.632;2023-03-04T04:30:09;102222.46;;;4.21;53.01
48888;BME280;42598;53.802;-1.632;2023-03-04T04:32:36;102222.93;;;4.99;51.75
48888;BME280;42598;53.802;-1.632;2023-03-04T04:35:05;102220.05;;;5.51;51.71
48888;BME280;42598;53.802;-1.632;2023-03-04T04:37:32;102219.38;;;4.48;52.68
48888;BME280;42598;53.802;-1.632;2023-03-04T04:39:59;102218.87;;;4.20;53.50
48888;BME280;42598;53.802;-1.632;2023-03-04T04:42:26;102212.96;;;5.49;52.02
48888;BME280;42598;53.802;-1.632;2023-03-04T04:44:53;102219.15;;;5.99;50.21
48888;BME280;42598;53.802;-1.632;2023-03-04T04:47:21;102215.27;;;5.39;51.19
48888;BME280;42598;53.802;-1.632;2023-03-04T04:49:48;102219.15;;;4.81;52.51
48888;BME280;42598;53.802;-1.632;2023-03-04T04:52:15;102219.68;;;5.47;51.00
48888;BME280;42598;53.802;-1.632;2023-03-04T04:54:43;102223.64;;;4.97;52.20
48888;BME280;42598;53.802;-1.632;2023-03-04T04:57:09;102222.59;;;4.58;52.73
48888;BME280;42598;53.802;-1.632;2023-03-04T04:59:36;102220.22;;;3.77;54.92
48888;BME280;42598;53.802;-1.632;2023-03-04T05:02:03;102217.94;;;4.13;54.63
48888;BME280;42598;53.802;-1.632;2023-03-04T05:04:30;102220.64;;;3.88;55.44
48888;BME280;42598;53.802;-1.632;2023-03-04T05:06:57;102221.28;;;3.40;55.86
48888;BME280;42598;53.802;-1.632;2023-03-04T05:09:24;102221.06;;;4.61;54.37
48888;BME280;42598;53.802;-1.632;2023-03-04T05:11:51;102220.21;;;5.40;52.99
48888;BME280;42598;53.802;-1.632;2023-03-04T05:14:18;102219.75;;;5.24;52.48
48888;BME280;42598;53.802;-1.632;2023-03-04T05:16:45;102222.15;;;5.88;50.42
48888;BME280;42598;53.802;-1.632;2023-03-04T05:19:12;102221.66;;;4.50;52.44
48888;BME280;42598;53.802;-1.632;2023-03-04T05:21:39;102222.31;;;3.30;55.62
48888;BME280;42598;53.802;-1.632;2023-03-04T05:24:06;102221.05;;;4.02;55.22
48888;BME280;42598;53.802;-1.632;2023-03-04T05:26:34;102221.12;;;3.24;56.68
48888;BME280;42598;53.802;-1.632;2023-03-04T05:29:00;102219.96;;;3.81;55.04
48888;BME280;42598;53.802;-1.632;2023-03-04T05:31:27;102222.20;;;3.35;56.24
48888;BME280;42598;53.802;-1.632;2023-03-04T05:34:00;102218.42;;;2.96;57.12
48888;BME280;42598;53.802;-1.632;2023-03-04T05:36:27;102215.54;;;3.79;56.92
48888;BME280;42598;53.802;-1.632;2023-03-04T05:38:54;102217.99;;;3.99;55.43
48888;BME280;42598;53.802;-1.632;2023-03-04T05:41:21;102222.29;;;4.61;54.54
48888;BME280;42598;53.802;-1.632;2023-03-04T05:43:48;102223.52;;;3.58;55.21
48888;BME280;42598;53.802;-1.632;2023-03-04T05:46:17;102224.58;;;4.48;54.50
48888;BME280;42598;53.802;-1.632;2023-03-04T05:48:44;102224.65;;;4.25;54.53
48888;BME280;42598;53.802;-1.632;2023-03-04T05:51:11;102223.50;;;4.43;55.24
48888;BME280;42598;53.802;-1.632;2023-03-04T05:53:39;102225.16;;;4.12;54.18
48888;BME280;42598;53.802;-1.632;2023-03-04T05:56:08;102225.29;;;4.90;53.33
48888;BME280;42598;53.802;-1.632;2023-03-04T05:58:35;102226.79;;;4.84;52.62
48888;BME280;42598;53.802;-1.632;2023-03-04T06:01:03;102225.51;;;3.64;55.17
48888;BME280;42598;53.802;-1.632;2023-03-04T06:03:30;102230.35;;;4.56;53.79
48888;BME280;42598;53.802;-1.632;2023-03-04T06:05:57;102225.33;;;3.92;53.65
48888;BME280;42598;53.802;-1.632;2023-03-04T06:08:24;102228.78;;;3.80;54.45
48888;BME280;42598;53.802;-1.632;2023-03-04T06:10:54;102227.12;;;4.40;53.37
48888;BME280;42598;53.802;-1.632;2023-03-04T06:13:22;102229.17;;;3.15;55.51
48888;BME280;42598;53.802;-1.632;2023-03-04T06:15:53;102226.91;;;3.95;54.34
48888;BME280;42598;53.802;-1.632;2023-03-04T06:18:20;102230.91;;;4.19;54.07
48888;BME280;42598;53.802;-1.632;2023-03-04T06:20:48;102235.08;;;3.98;55.23
48888;BME280;42598;53.802;-1.632;2023-03-04T06:23:16;102238.92;;;4.41;54.23
48888;BME280;42598;53.802;-1.632;2023-03-04T06:25:43;102241.14;;;5.28;52.11
48888;BME280;42598;53.802;-1.632;2023-03-04T06:28:11;102241.12;;;4.54;52.99
48888;BME280;42598;53.802;-1.632;2023-03-04T06:30:38;102242.42;;;4.67;52.83
48888;BME280;42598;53.802;-1.632;2023-03-04T06:33:06;102244.30;;;4.67;52.84
48888;BME280;42598;53.802;-1.632;2023-03-04T06:35:32;102241.70;;;5.76;50.21
48888;BME280;42598;53.802;-1.632;2023-03-04T06:37:59;102241.50;;;5.80;49.89
48888;BME280;42598;53.802;-1.632;2023-03-04T06:40:27;102243.89;;;5.72;50.11
48888;BME280;42598;53.802;-1.632;2023-03-04T06:42:53;102246.28;;;5.03;51.50
48888;BME280;42598;53.802;-1.632;2023-03-04T06:45:21;102250.46;;;3.88;52.81
48888;BME280;42598;53.802;-1.632;2023-03-04T06:47:48;102252.00;;;5.51;50.86
48888;BME280;42598;53.802;-1.632;2023-03-04T06:50:15;102261.70;;;3.68;53.50
48888;BME280;42598;53.802;-1.632;2023-03-04T06:50:16;102261.16;;;3.97;53.49
48888;BME280;42598;53.802;-1.632;2023-03-04T06:52:43;102263.58;;;4.56;52.52
48888;BME280;42598;53.802;-1.632;2023-03-04T06:55:10;102265.12;;;3.62;54.30
48888;BME280;42598;53.802;-1.632;2023-03-04T06:57:37;102264.89;;;4.38;53.79
48888;BME280;42598;53.802;-1.632;2023-03-04T07:00:06;102266.60;;;4.00;53.79
48888;BME280;42598;53.802;-1.632;2023-03-04T07:02:33;102269.58;;;3.54;55.60
48888;BME280;42598;53.802;-1.632;2023-03-04T07:05:00;102268.59;;;3.38;55.42
48888;BME280;42598;53.802;-1.632;2023-03-04T07:07:27;102265.76;;;3.44;55.18
48888;BME280;42598;53.802;-1.632;2023-03-04T07:09:54;102268.72;;;3.74;54.68
48888;BME280;42598;53.802;-1.632;2023-03-04T07:12:21;102276.28;;;3.01;56.33
48888;BME280;42598;53.802;-1.632;2023-03-04T07:14:48;102280.46;;;2.86;57.15
48888;BME280;42598;53.802;-1.632;2023-03-04T07:17:14;102279.22;;;3.74;55.10
48888;BME280;42598;53.802;-1.632;2023-03-04T07:19:41;102282.96;;;2.90;56.50
48888;BME280;42598;53.802;-1.632;2023-03-04T07:22:08;102280.44;;;3.34;56.13
48888;BME280;42598;53.802;-1.632;2023-03-04T07:24:35;102285.28;;;2.66;56.86
48888;BME280;42598;53.802;-1.632;2023-03-04T07:27:02;102287.42;;;3.05;55.89
48888;BME280;42598;53.802;-1.632;2023-03-04T07:29:30;102286.04;;;3.77;55.16
48888;BME280;42598;53.802;-1.632;2023-03-04T07:31:58;102287.21;;;4.72;52.01
48888;BME280;42598;53.802;-1.632;2023-03-04T07:34:25;102284.12;;;3.63;53.11
48888;BME280;42598;53.802;-1.632;2023-03-04T07:36:52;102286.80;;;3.06;55.96
48888;BME280;42598;53.802;-1.632;2023-03-04T07:39:19;102282.32;;;3.55;53.88
48888;BME280;42598;53.802;-1.632;2023-03-04T07:41:46;102279.90;;;3.21;55.21
48888;BME280;42598;53.802;-1.632;2023-03-04T07:44:13;102281.05;;;3.28;54.49
48888;BME280;42598;53.802;-1.632;2023-03-04T07:46:41;102275.97;;;4.02;53.91
48888;BME280;42598;53.802;-1.632;2023-03-04T07:49:10;102279.98;;;3.59;54.34
48888;BME280;42598;53.802;-1.632;2023-03-04T07:51:45;102277.31;;;2.81;55.34
48888;BME280;42598;53.802;-1.632;2023-03-04T07:54:13;102273.90;;;3.50;54.72
48888;BME280;42598;53.802;-1.632;2023-03-04T07:56:40;102281.76;;;2.46;56.14
48888;BME280;42598;53.802;-1.632;2023-03-04T07:59:08;102278.56;;;2.68;56.37
48888;BME280;42598;53.802;-1.632;2023-03-04T08:01:37;102274.07;;;3.23;55.05
48888;BME280;42598;53.802;-1.632;2023-03-04T08:04:06;102278.20;;;3.02;55.43
48888;BME280;42598;53.802;-1.632;2023-03-04T08:06:34;102279.70;;;3.26;54.94
48888;BME280;42598;53.802;-1.632;2023-03-04T08:09:04;102281.63;;;3.38;55.16
48888;BME280;42598;53.802;-1.632;2023-03-04T08:11:33;102277.70;;;3.60;53.66
48888;BME280;42598;53.802;-1.632;2023-03-04T08:14:01;102276.61;;;3.81;53.32
48888;BME280;42598;53.802;-1.632;2023-03-04T08:16:29;102275.09;;;3.62;53.21
48888;BME280;42598;53.802;-1.632;2023-03-04T08:18:59;102273.99;;;4.17;52.19
48888;BME280;42598;53.802;-1.632;2023-03-04T08:21:28;102279.52;;;3.50;53.53
48888;BME280;42598;53.802;-1.632;2023-03-04T08:23:57;102283.80;;;3.53;52.53
48888;BME280;42598;53.802;-1.632;2023-03-04T08:26:27;102284.17;;;2.89;54.40
48888;BME280;42598;53.802;-1.632;2023-03-04T08:28:55;102283.93;;;2.58;54.30
48888;BME280;42598;53.802;-1.632;2023-03-04T08:31:23;102282.54;;;3.35;54.05
48888;BME280;42598;53.802;-1.632;2023-03-04T08:33:50;102286.01;;;2.54;54.44
48888;BME280;42598;53.802;-1.632;2023-03-04T08:36:22;102285.42;;;2.71;54.12
48888;BME280;42598;53.802;-1.632;2023-03-04T08:38:50;102276.14;;;3.74;51.92
48888;BME280;42598;53.802;-1.632;2023-03-04T08:41:17;102281.13;;;3.00;53.50
48888;BME280;42598;53.802;-1.632;2023-03-04T08:43:43;102280.25;;;2.77;54.29
48888;BME280;42598;53.802;-1.632;2023-03-04T08:46:10;102276.24;;;3.44;52.05
48888;BME280;42598;53.802;-1.632;2023-03-04T08:48:37;102280.04;;;3.30;52.03
48888;BME280;42598;53.802;-1.632;2023-03-04T08:51:07;102282.79;;;3.22;52.29
48888;BME280;42598;53.802;-1.632;2023-03-04T08:53:35;102282.30;;;3.36;52.36
48888;BME280;42598;53.802;-1.632;2023-03-04T08:56:02;102282.17;;;3.13;51.97
48888;BME280;42598;53.802;-1.632;2023-03-04T08:58:30;102284.42;;;3.47;52.59
48888;BME280;42598;53.802;-1.632;2023-03-04T09:00:58;102286.67;;;3.17;52.18
48888;BME280;42598;53.802;-1.632;2023-03-04T09:03:25;102288.75;;;3.94;50.86
48888;BME280;42598;53.802;-1.632;2023-03-04T09:05:53;102289.62;;;3.47;51.41
48888;BME280;42598;53.802;-1.632;2023-03-04T09:08:21;102286.36;;;4.02;50.66
48888;BME280;42598;53.802;-1.632;2023-03-04T09:10:52;102289.89;;;3.86;50.74
48888;BME280;42598;53.802;-1.632;2023-03-04T09:13:20;102287.06;;;3.59;50.84
48888;BME280;42598;53.802;-1.632;2023-03-04T09:15:48;102289.89;;;3.15;51.63
48888;BME280;42598;53.802;-1.632;2023-03-04T09:18:16;102290.05;;;3.81;50.57
48888;BME280;42598;53.802;-1.632;2023-03-04T09:20:43;102287.67;;;4.20;49.21
48888;BME280;42598;53.802;-1.632;2023-03-04T09:23:11;102286.88;;;3.95;49.59
48888;BME280;42598;53.802;-1.632;2023-03-04T09:25:39;102290.15;;;4.14;49.46
48888;BME280;42598;53.802;-1.632;2023-03-04T09:28:06;102289.92;;;4.14;49.69
48888;BME280;42598;53.802;-1.632;2023-03-04T09:30:34;102289.14;;;3.59;50.02
48888;BME280;42598;53.802;-1.632;2023-03-04T09:33:02;102289.01;;;3.49;51.19
48888;BME280;42598;53.802;-1.632;2023-03-04T09:35:29;102288.63;;;4.63;49.99
48888;BME280;42598;53.802;-1.632;2023-03-04T09:37:56;102288.13;;;5.21;48.15
48888;BME280;42598;53.802;-1.632;2023-03-04T09:40:26;102286.39;;;3.62;49.48
48888;BME280;42598;53.802;-1.632;2023-03-04T09:42:56;102284.59;;;3.63;51.20
48888;BME280;42598;53.802;-1.632;2023-03-04T09:45:30;102280.09;;;3.84;50.17
48888;BME280;42598;53.802;-1.632;2023-03-04T09:47:59;102282.73;;;3.49;51.27
48888;BME280;42598;53.802;-1.632;2023-03-04T09:50:30;102285.28;;;2.85;52.89
48888;BME280;42598;53.802;-1.632;2023-03-04T09:53:06;102286.59;;;3.29;51.76
48888;BME280;42598;53.802;-1.632;2023-03-04T09:55:42;102284.13;;;3.63;51.25
48888;BME280;42598;53.802;-1.632;2023-03-04T09:58:28;102281.52;;;3.33;51.96
48888;BME280;42598;53.802;-1.632;2023-03-04T10:01:03;102284.63;;;2.60;53.73
48888;BME280;42598;53.802;-1.632;2023-03-04T10:03:42;102280.73;;;2.97;53.03
48888;BME280;42598;53.802;-1.632;2023-03-04T10:06:14;102272.82;;;3.36;52.75
48888;BME280;42598;53.802;-1.632;2023-03-04T10:08:49;102273.90;;;3.57;52.32
48888;BME280;42598;53.802;-1.632;2023-03-04T10:11:22;102275.01;;;2.79;53.40
48888;BME280;42598;53.802;-1.632;2023-03-04T10:13:58;102270.64;;;3.67;53.30
48888;BME280;42598;53.802;-1.632;2023-03-04T10:16:31;102272.75;;;2.80;53.63
48888;BME280;42598;53.802;-1.632;2023-03-04T10:19:10;102271.09;;;3.42;52.14
48888;BME280;42598;53.802;-1.632;2023-03-04T10:21:48;102270.22;;;2.93;54.21
48888;BME280;42598;53.802;-1.632;2023-03-04T10:24:17;102268.07;;;3.00;53.33
48888;BME280;42598;53.802;-1.632;2023-03-04T10:26:47;102269.89;;;3.05;53.23
48888;BME280;42598;53.802;-1.632;2023-03-04T10:29:17;102265.61;;;4.03;51.32
48888;BME280;42598;53.802;-1.632;2023-03-04T10:31:45;102267.96;;;3.27;52.28
48888;BME280;42598;53.802;-1.632;2023-03-04T10:34:15;102271.24;;;3.50;51.71
48888;BME280;42598;53.802;-1.632;2023-03-04T10:36:49;102266.78;;;4.12;52.00
48888;BME280;42598;53.802;-1.632;2023-03-04T10:39:24;102266.92;;;3.70;51.90
48888;BME280;42598;53.802;-1.632;2023-03-04T10:41:56;102265.68;;;4.74;50.79
48888;BME280;42598;53.802;-1.632;2023-03-04T10:44:24;102262.42;;;3.51;51.07
48888;BME280;42598;53.802;-1.632;2023-03-04T10:46:54;102263.12;;;3.80;50.75
48888;BME280;42598;53.802;-1.632;2023-03-04T10:49:22;102266.70;;;3.87;50.68
48888;BME280;42598;53.802;-1.632;2023-03-04T10:51:52;102264.96;;;4.44;50.44
48888;BME280;42598;53.802;-1.632;2023-03-04T10:54:24;102265.85;;;4.35;50.48
48888;BME280;42598;53.802;-1.632;2023-03-04T10:56:56;102267.36;;;5.15;49.08
48888;BME280;42598;53.802;-1.632;2023-03-04T10:59:39;102263.89;;;4.22;48.95
48888;BME280;42598;53.802;-1.632;2023-03-04T11:02:19;102263.55;;;4.80;48.41
48888;BME280;42598;53.802;-1.632;2023-03-04T11:04:50;102258.65;;;4.99;47.26
48888;BME280;42598;53.802;-1.632;2023-03-04T11:07:19;102257.27;;;5.95;46.83
48888;BME280;42598;53.802;-1.632;2023-03-04T11:09:46;102256.70;;;4.85;48.38
48888;BME280;42598;53.802;-1.632;2023-03-04T11:12:16;102253.41;;;5.09;48.42
48888;BME280;42598;53.802;-1.632;2023-03-04T11:14:46;102249.11;;;4.52;48.40
48888;BME280;42598;53.802;-1.632;2023-03-04T11:17:18;102246.26;;;4.34;49.35
48888;BME280;42598;53.802;-1.632;2023-03-04T11:19:48;102239.11;;;4.88;48.70
48888;BME280;42598;53.802;-1.632;2023-03-04T11:22:19;102232.88;;;5.60;47.38
48888;BME280;42598;53.802;-1.632;2023-03-04T11:24:55;102230.72;;;5.70;46.61
48888;BME280;42598;53.802;-1.632;2023-03-04T11:27:29;102226.08;;;6.23;45.44
48888;BME280;42598;53.802;-1.632;2023-03-04T11:30:15;102222.24;;;6.59;45.29
48888;BME280;42598;53.802;-1.632;2023-03-04T11:32:51;102222.00;;;6.02;44.86
48888;BME280;42598;53.802;-1.632;2023-03-04T11:35:24;102219.54;;;5.62;45.29
48888;BME280;42598;53.802;-1.632;2023-03-04T11:38:00;102217.91;;;5.25;46.50
48888;BME280;42598;53.802;-1.632;2023-03-04T11:40:39;102209.22;;;5.07;46.86
48888;BME280;42598;53.802;-1.632;2023-03-04T11:43:13;102206.66;;;5.11;47.54
48888;BME280;42598;53.802;-1.632;2023-03-04T11:46:03;102203.30;;;4.23;49.80
48888;BME280;42598;53.802;-1.632;2023-03-04T11:48:48;102200.57;;;6.14;46.24
48888;BME280;42598;53.802;-1.632;2023-03-04T11:51:26;102192.59;;;5.93;45.98
48888;BME280;42598;53.802;-1.632;2023-03-04T11:54:08;102190.49;;;6.03;44.77
48888;BME280;42598;53.802;-1.632;2023-03-04T11:56:43;102187.58;;;6.55;44.95
48888;BME280;42598;53.802;-1.632;2023-03-04T11:59:24;102185.64;;;6.31;44.17
48888;BME280;42598;53.802;-1.632;2023-03-04T12:02:00;102179.20;;;6.49;43.75
48888;BME280;42598;53.802;-1.632;2023-03-04T12:05:55;102171.17;;;5.22;46.42
48888;BME280;42598;53.802;-1.632;2023-03-04T12:08:53;102172.40;;;5.47;46.27
48888;BME280;42598;53.802;-1.632;2023-03-04T12:11:31;102170.83;;;5.82;45.58
48888;BME280;42598;53.802;-1.632;2023-03-04T12:14:13;102167.81;;;5.62;44.96
48888;BME280;42598;53.802;-1.632;2023-03-04T12:19:05;102166.48;;;7.20;43.31
48888;BME280;42598;53.802;-1.632;2023-03-04T12:21:59;102166.26;;;6.16;43.56
48888;BME280;42598;53.802;-1.632;2023-03-04T12:24:38;102157.39;;;7.11;42.64
48888;BME280;42598;53.802;-1.632;2023-03-04T12:27:18;102166.32;;;6.13;43.57
48888;BME280;42598;53.802;-1.632;2023-03-04T12:29:55;102167.68;;;6.11;44.01
48888;BME280;42598;53.802;-1.632;2023-03-04T12:32:28;102168.45;;;7.29;41.96
48888;BME280;42598;53.802;-1.632;2023-03-04T12:35:16;102174.77;;;5.76;43.40
48888;BME280;42598;53.802;-1.632;2023-03-04T12:37:53;102168.22;;;5.45;44.29
48888;BME280;42598;53.802;-1.632;2023-03-04T12:40:31;102166.80;;;5.83;44.21
48888;BME280;42598;53.802;-1.632;2023-03-04T12:43:10;102160.21;;;6.19;44.06
48888;BME280;42598;53.802;-1.632;2023-03-04T12:45:46;102153.40;;;6.07;43.48
48888;BME280;42598;53.802;-1.632;2023-03-04T12:48:26;102146.84;;;5.77;43.95
48888;BME280;42598;53.802;-1.632;2023-03-04T12:51:20;102142.50;;;5.60;44.58
48888;BME280;42598;53.802;-1.632;2023-03-04T12:53:58;102137.07;;;6.00;44.16
48888;BME280;42598;53.802;-1.632;2023-03-04T12:56:36;102134.36;;;5.28;44.99
48888;BME280;42598;53.802;-1.632;2023-03-04T12:59:05;102132.98;;;7.24;42.07
48888;BME280;42598;53.802;-1.632;2023-03-04T13:01:38;102139.57;;;6.50;43.49
48888;BME280;42598;53.802;-1.632;2023-03-04T13:04:13;102138.66;;;5.84;42.83